Time;durP1;ratioP1;P1;durP2;ratioP2;P2;SDS_P1;SDS_P2;PMS_P1;PMS_P2;Temp;Humidity;BMP_temperature;BMP_pressure;BME280_temperature;BME280_humidity;BME280_pressure;Samples;Min_cycle;Max_cycle;Signal;HPM_P1;HPM_P2
2021/07/12 00:00:42;;;;;;;17.70;16.50;;;15.80;99.90;;;;;;4992131;28;20455;-80
2021/07/12 00:03:09;;;;;;;15.30;14.40;;;15.80;99.90;;;;;;4992384;28;20494;-80
2021/07/12 00:05:36;;;;;;;15.27;14.30;;;15.80;99.90;;;;;;4992156;28;20454;-80
2021/07/12 00:08:05;;;;;;;15.87;14.97;;;15.80;99.90;;;;;;4991967;28;20963;-80
2021/07/12 00:10:32;;;;;;;14.97;14.27;;;15.80;99.90;;;;;;4992012;28;20478;-80
2021/07/12 00:12:59;;;;;;;14.83;13.90;;;15.60;99.90;;;;;;4991671;28;20479;-80
2021/07/12 00:15:27;;;;;;;15.00;14.20;;;15.60;99.90;;;;;;4992245;28;20458;-80
2021/07/12 00:17:54;;;;;;;17.30;16.30;;;15.60;99.90;;;;;;4993007;28;20458;-80
2021/07/12 00:20:21;;;;;;;16.70;15.60;;;15.70;99.90;;;;;;4995684;28;20482;-80
2021/07/12 00:22:48;;;;;;;17.33;16.23;;;15.70;99.90;;;;;;4992751;28;20454;-80
2021/07/12 00:25:21;;;;;;;16.40;15.40;;;15.60;99.90;;;;;;4993501;28;20490;-80
2021/07/12 00:27:48;;;;;;;16.20;15.27;;;15.60;99.90;;;;;;4991818;28;20458;-79
2021/07/12 00:30:17;;;;;;;15.10;14.30;;;15.50;99.90;;;;;;4991301;28;20957;-79
2021/07/12 00:32:44;;;;;;;16.90;15.70;;;15.50;99.90;;;;;;4991530;28;20451;-80
2021/07/12 00:35:12;;;;;;;15.80;15.10;;;15.40;99.90;;;;;;4991877;28;20453;-80
2021/07/12 00:37:39;;;;;;;16.17;15.07;;;15.40;99.90;;;;;;4990879;28;20482;-79
2021/07/12 00:40:08;;;;;;;15.90;14.90;;;15.50;99.90;;;;;;4991295;28;20459;-79
2021/07/12 00:42:37;;;;;;;17.07;16.07;;;15.50;99.90;;;;;;4991459;28;20466;-78
2021/07/12 00:45:06;;;;;;;17.80;16.50;;;15.40;99.90;;;;;;4991210;28;20497;-78
2021/07/12 00:47:33;;;;;;;18.00;16.90;;;15.40;99.90;;;;;;4991375;28;20828;-78
2021/07/12 00:50:00;;;;;;;16.47;15.23;;;15.40;99.90;;;;;;4991206;28;20460;-78
2021/07/12 00:52:27;;;;;;;16.40;15.50;;;15.40;99.90;;;;;;4991561;28;20458;-78
2021/07/12 00:54:53;;;;;;;17.10;16.27;;;15.40;99.90;;;;;;4991193;28;20488;-78
2021/07/12 00:57:21;;;;;;;16.37;15.27;;;15.30;99.90;;;;;;4991112;28;20454;-78
2021/07/12 00:59:51;;;;;;;17.27;16.17;;;15.20;99.90;;;;;;4991355;28;20461;-78
2021/07/12 01:02:18;;;;;;;17.93;16.73;;;15.30;99.90;;;;;;4991123;28;20451;-78
2021/07/12 01:04:45;;;;;;;16.90;16.00;;;15.20;99.90;;;;;;4991057;28;20482;-78
2021/07/12 01:07:13;;;;;;;16.00;15.20;;;15.20;99.90;;;;;;4991228;28;20451;-78
2021/07/12 01:09:40;;;;;;;16.60;15.60;;;15.20;99.90;;;;;;4991285;28;20459;-79
2021/07/12 05:37:57;;;;;;;13.00;12.40;;;20.20;99.90;;;;;;5062186;23;20522;-70
2021/07/12 05:40:23;;;;;;;14.00;13.40;;;20.60;99.90;;;;;;4993837;28;20712;-71
2021/07/12 05:42:50;;;;;;;13.90;13.20;;;20.80;99.90;;;;;;4993633;28;20466;-70
2021/07/12 05:45:17;;;;;;;12.33;11.73;;;20.90;99.90;;;;;;4991940;28;20498;-71
2021/07/12 05:47:43;;;;;;;13.20;12.43;;;20.90;99.90;;;;;;4994115;28;20451;-68
2021/07/12 05:50:11;;;;;;;13.03;12.53;;;21.20;99.90;;;;;;4988285;28;20498;-68
2021/07/12 05:52:37;;;;;;;13.43;12.83;;;21.10;99.90;;;;;;4980220;28;20462;-71
2021/07/12 05:55:07;;;;;;;13.80;13.00;;;20.90;99.90;;;;;;4989196;28;20467;-71
2021/07/12 05:57:33;;;;;;;14.40;13.33;;;21.20;99.90;;;;;;4983429;28;20456;-71
2021/07/12 06:00:00;;;;;;;12.13;11.53;;;21.20;99.90;;;;;;4975058;28;20452;-71
2021/07/12 06:02:27;;;;;;;13.40;12.73;;;21.50;99.90;;;;;;4988668;28;20454;-68
2021/07/12 06:04:54;;;;;;;13.87;12.83;;;21.80;99.90;;;;;;4993897;28;20493;-71
2021/07/12 06:07:21;;;;;;;14.30;13.60;;;22.00;99.90;;;;;;4994340;28;20461;-69
2021/07/12 06:09:48;;;;;;;15.00;13.70;;;21.70;99.90;;;;;;4993990;28;20454;-71
2021/07/12 06:12:16;;;;;;;14.93;14.03;;;21.40;99.90;;;;;;4994043;28;20462;-71
2021/07/12 06:14:43;;;;;;;16.53;15.20;;;21.60;99.90;;;;;;4996012;28;20454;-71
2021/07/12 06:17:10;;;;;;;17.47;16.30;;;22.10;99.90;;;;;;5011629;28;20722;-72
2021/07/12 06:19:36;;;;;;;15.10;14.20;;;22.40;99.90;;;;;;5013244;28;20442;-70
2021/07/12 06:22:04;;;;;;;15.80;14.90;;;22.50;99.90;;;;;;5013357;28;20453;-72
2021/07/12 06:24:31;;;;;;;15.50;14.80;;;22.80;99.90;;;;;;5011540;28;21067;-69
2021/07/12 06:26:58;;;;;;;16.20;15.10;;;22.80;99.90;;;;;;5012687;28;20493;-72
2021/07/12 06:29:26;;;;;;;13.90;13.10;;;22.50;99.90;;;;;;5013051;28;20457;-73
2021/07/12 06:31:54;;;;;;;13.73;13.00;;;22.60;99.90;;;;;;5012855;28;20911;-72
2021/07/12 06:34:21;;;;;;;14.43;13.53;;;22.70;99.90;;;;;;5010994;28;21006;-72
2021/07/12 06:36:48;;;;;;;14.10;13.60;;;23.00;99.90;;;;;;5012657;28;20482;-72
2021/07/12 06:39:14;;;;;;;14.50;13.50;;;23.70;99.90;;;;;;4995201;28;20470;-73
2021/07/12 06:41:41;;;;;;;13.47;12.80;;;24.10;99.90;;;;;;4992871;28;20454;-70
2021/07/12 06:44:08;;;;;;;13.10;12.60;;;24.10;99.90;;;;;;4993126;28;20897;-72
2021/07/12 06:46:36;;;;;;;13.87;13.10;;;23.90;99.90;;;;;;4993337;28;20454;-72
2021/07/12 06:49:03;;;;;;;13.90;13.40;;;23.80;99.90;;;;;;4993515;28;20807;-73
2021/07/12 06:51:30;;;;;;;14.40;13.40;;;24.00;99.90;;;;;;4993278;28;20455;-73
2021/07/12 06:53:57;;;;;;;14.93;14.13;;;24.20;99.90;;;;;;4992864;28;20459;-73
2021/07/12 06:56:23;;;;;;;13.57;12.97;;;24.00;99.90;;;;;;4992838;28;20454;-70
2021/07/12 06:58:50;;;;;;;15.03;14.40;;;24.30;99.90;;;;;;4993002;28;20477;-70
2021/07/12 07:01:17;;;;;;;15.63;14.60;;;24.10;99.90;;;;;;4993304;28;20442;-70
2021/07/12 07:03:45;;;;;;;14.40;13.40;;;24.90;99.90;;;;;;4999667;28;20466;-70
2021/07/12 07:06:12;;;;;;;14.33;13.53;;;25.40;99.90;;;;;;5012208;28;20486;-70
2021/07/12 07:08:38;;;;;;;14.43;13.27;;;26.00;99.90;;;;;;5012185;28;20674;-70
2021/07/12 07:11:05;;;;;;;14.57;13.70;;;26.40;98.60;;;;;;5012241;28;20804;-71
2021/07/12 07:13:38;;;;;;;13.70;13.13;;;26.60;97.80;;;;;;4998810;28;20482;-70
2021/07/12 07:16:05;;;;;;;13.60;13.10;;;26.50;97.50;;;;;;4992799;28;20450;-71
2021/07/12 07:18:32;;;;;;;12.97;12.27;;;26.50;97.40;;;;;;4990895;28;20443;-72
2021/07/12 07:21:00;;;;;;;13.40;12.70;;;26.50;97.30;;;;;;4992360;28;20455;-71
2021/07/12 07:23:27;;;;;;;12.97;12.47;;;26.20;97.80;;;;;;4992593;28;20454;-71
2021/07/12 07:25:54;;;;;;;13.70;12.77;;;26.30;97.70;;;;;;4992324;28;20513;-71
2021/07/12 07:28:20;;;;;;;13.50;12.80;;;26.30;97.80;;;;;;4992143;28;20963;-70
2021/07/12 07:30:48;;;;;;;15.93;14.90;;;26.40;97.80;;;;;;4992086;28;20803;-71
2021/07/12 07:33:15;;;;;;;14.40;13.67;;;26.80;97.40;;;;;;4991918;28;20462;-71
2021/07/12 07:35:42;;;;;;;15.53;14.50;;;27.10;96.40;;;;;;4991615;28;20486;-71
2021/07/12 07:38:10;;;;;;;15.37;14.03;;;27.30;96.40;;;;;;4991826;28;20854;-70
2021/07/12 07:40:37;;;;;;;15.23;14.53;;;27.60;95.50;;;;;;4991696;28;20454;-71
2021/07/12 07:43:04;;;;;;;15.10;14.40;;;28.00;94.80;;;;;;4992020;28;20458;-71
2021/07/12 07:45:32;;;;;;;15.20;14.37;;;28.60;93.80;;;;;;4991545;28;20525;-71
2021/07/12 07:47:58;;;;;;;14.93;14.23;;;29.20;92.50;;;;;;4991979;28;20498;-71
2021/07/12 07:50:25;;;;;;;13.63;13.03;;;29.90;91.10;;;;;;4991602;28;20454;-71
2021/07/12 07:52:52;;;;;;;15.03;14.33;;;30.80;90.00;;;;;;4991636;28;20454;-71
2021/07/12 07:55:21;;;;;;;14.20;13.70;;;31.50;86.10;;;;;;4991606;28;20941;-71
2021/07/12 07:57:47;;;;;;;14.80;14.30;;;31.50;85.50;;;;;;4991846;28;20461;-71
2021/07/12 08:00:17;;;;;;;14.33;13.63;;;31.40;84.80;;;;;;4991498;28;21930;-72
2021/07/12 08:02:44;;;;;;;15.40;14.60;;;31.70;84.20;;;;;;4991791;28;20457;-71
2021/07/12 08:05:12;;;;;;;14.87;14.10;;;31.80;83.30;;;;;;4991319;28;20494;-71
2021/07/12 08:07:40;;;;;;;16.23;15.20;;;32.30;81.00;;;;;;4991232;28;20896;-71
2021/07/12 08:10:09;;;;;;;15.10;14.30;;;32.90;79.60;;;;;;4991231;28;20979;-71
2021/07/12 08:12:37;;;;;;;13.90;13.30;;;32.80;78.50;;;;;;4991390;28;20945;-71
2021/07/12 08:15:05;;;;;;;13.70;13.20;;;32.30;78.90;;;;;;4991092;28;20968;-72
2021/07/12 08:17:31;;;;;;;14.83;14.23;;;32.10;79.90;;;;;;4991709;28;20459;-71
2021/07/12 08:19:58;;;;;;;13.97;13.47;;;31.30;78.50;;;;;;4991912;28;20451;-71
2021/07/12 08:22:25;;;;;;;12.20;11.80;;;30.40;82.30;;;;;;4991872;28;20558;-71
2021/07/12 08:24:52;;;;;;;12.97;12.47;;;28.90;86.30;;;;;;4991746;28;20494;-71
2021/07/12 08:27:18;;;;;;;12.77;12.30;;;28.50;88.20;;;;;;4991846;28;20933;-71
2021/07/12 08:29:46;;;;;;;13.97;13.27;;;28.80;88.40;;;;;;4991806;28;20466;-71
2021/07/12 08:32:13;;;;;;;13.23;12.83;;;28.80;87.80;;;;;;4991664;28;20454;-71
2021/07/12 08:34:42;;;;;;;12.43;12.00;;;29.10;86.70;;;;;;4991618;28;20601;-71
2021/07/12 08:37:09;;;;;;;13.20;12.80;;;28.70;87.00;;;;;;4991567;28;20943;-72
2021/07/12 08:39:36;;;;;;;12.50;12.10;;;28.70;88.30;;;;;;4991567;28;20450;-71
2021/07/12 08:42:03;;;;;;;12.93;12.50;;;28.90;87.70;;;;;;4991909;28;20453;-71
2021/07/12 08:44:30;;;;;;;12.00;11.60;;;28.90;86.60;;;;;;4991630;28;20952;-72
2021/07/12 08:46:58;;;;;;;13.17;12.67;;;29.40;86.40;;;;;;4991563;28;20450;-72
2021/07/12 08:49:27;;;;;;;12.83;12.40;;;29.60;86.00;;;;;;4991631;28;20458;-71
2021/07/12 08:51:53;;;;;;;13.10;12.70;;;29.20;87.60;;;;;;4991347;28;21204;-72
2021/07/12 08:54:20;;;;;;;13.63;13.13;;;28.70;88.20;;;;;;4991522;28;20944;-71
2021/07/12 08:56:47;;;;;;;13.37;12.87;;;28.40;88.10;;;;;;4991200;28;20495;-71
2021/07/12 08:59:28;;;;;;;13.07;12.67;;;28.70;86.40;;;;;;4991402;28;20885;-72
2021/07/12 09:02:04;;;;;;;12.83;12.33;;;28.70;87.80;;;;;;4991379;28;20482;-71
2021/07/12 09:04:31;;;;;;;12.87;12.47;;;28.40;88.20;;;;;;4991451;28;20955;-71
2021/07/12 09:07:01;;;;;;;13.80;13.30;;;28.50;86.00;;;;;;4991097;28;20446;-71
2021/07/12 09:09:28;;;;;;;14.50;13.97;;;29.00;86.20;;;;;;4991150;28;20489;-71
2021/07/12 09:11:55;;;;;;;15.30;14.60;;;29.10;86.00;;;;;;4991000;28;20648;-71
2021/07/12 09:14:23;;;;;;;13.67;13.17;;;29.30;85.20;;;;;;4990605;28;20454;-71
2021/07/12 09:16:52;;;;;;;13.90;13.40;;;29.50;83.50;;;;;;4990625;28;20526;-71
2021/07/12 09:19:23;;;;;;;13.67;13.27;;;29.90;83.10;;;;;;4990376;28;20467;-72
2021/07/12 09:21:53;;;;;;;14.33;13.83;;;30.50;81.00;;;;;;4990581;28;20458;-72
2021/07/12 09:24:24;;;;;;;14.23;13.53;;;30.60;80.00;;;;;;4990518;28;20490;-71
2021/07/12 09:26:52;;;;;;;14.00;13.27;;;30.00;80.30;;;;;;4990440;28;20483;-71
2021/07/12 09:29:22;;;;;;;14.37;13.77;;;29.60;82.20;;;;;;4990895;28;20446;-71
2021/07/12 09:31:49;;;;;;;14.33;13.83;;;29.30;84.20;;;;;;4991053;28;20494;-71
2021/07/12 09:34:15;;;;;;;14.20;13.70;;;29.50;84.20;;;;;;4991096;28;20474;-71
2021/07/12 09:36:43;;;;;;;13.87;13.37;;;29.90;82.70;;;;;;4990317;28;20490;-72
2021/07/12 09:39:26;;;;;;;14.27;13.77;;;29.90;82.60;;;;;;4990648;28;20455;-72
2021/07/12 09:41:54;;;;;;;13.97;13.40;;;29.50;81.20;;;;;;4990723;28;20451;-72
2021/07/12 09:44:22;;;;;;;15.20;14.60;;;29.70;83.10;;;;;;4990546;28;20454;-71
2021/07/12 09:46:50;;;;;;;14.70;14.00;;;30.60;81.80;;;;;;4990584;28;20486;-72
2021/07/12 09:49:18;;;;;;;14.00;13.40;;;30.50;80.00;;;;;;4985929;28;20550;-72
2021/07/12 09:51:46;;;;;;;14.00;13.27;;;30.70;81.50;;;;;;4988674;28;20459;-72
2021/07/12 09:54:21;;;;;;;14.27;13.87;;;30.70;80.80;;;;;;4990018;28;20442;-72
2021/07/12 09:56:49;;;;;;;13.60;13.10;;;30.80;79.50;;;;;;4990140;28;20501;-71
2021/07/12 09:59:17;;;;;;;13.77;13.30;;;30.30;80.00;;;;;;4990298;28;20514;-71
2021/07/12 10:01:48;;;;;;;14.00;13.50;;;30.00;81.90;;;;;;4989982;28;20447;-71
2021/07/12 10:04:15;;;;;;;14.27;13.77;;;30.10;80.80;;;;;;4990029;28;20862;-72
2021/07/12 10:06:43;;;;;;;13.80;13.30;;;30.30;79.20;;;;;;4989614;28;20495;-71
2021/07/12 10:09:12;;;;;;;13.70;13.00;;;30.40;78.70;;;;;;4991490;28;20553;-71
2021/07/12 10:11:40;;;;;;;13.80;13.30;;;29.80;79.50;;;;;;4991689;28;21076;-72
2021/07/12 10:14:07;;;;;;;14.70;14.00;;;30.60;79.70;;;;;;4993442;28;20466;-71
2021/07/12 10:16:34;;;;;;;13.87;13.47;;;31.20;77.80;;;;;;4993353;28;20451;-71
2021/07/12 10:19:00;;;;;;;13.83;13.43;;;30.70;76.90;;;;;;4993244;28;20454;-71
2021/07/12 10:21:36;;;;;;;14.17;13.70;;;30.40;77.10;;;;;;4993197;28;20463;-71
2021/07/12 10:24:04;;;;;;;13.10;12.70;;;30.50;80.20;;;;;;4993620;28;20804;-72
2021/07/12 10:26:49;;;;;;;14.10;13.60;;;31.10;77.70;;;;;;4993382;28;20486;-72
2021/07/12 10:29:17;;;;;;;14.10;13.50;;;31.40;76.80;;;;;;4993499;28;20446;-71
2021/07/12 10:32:13;;;;;;;14.93;14.37;;;31.40;73.90;;;;;;4993180;28;20447;-72
2021/07/12 10:34:42;;;;;;;14.60;13.90;;;31.60;73.30;;;;;;4948422;28;20537;-72
2021/07/12 10:37:27;;;;;;;14.20;13.70;;;31.00;75.10;;;;;;4992687;28;20483;-72
2021/07/12 10:40:08;;;;;;;14.03;13.53;;;30.80;77.70;;;;;;4991377;28;21169;-71
2021/07/12 10:42:58;;;;;;;14.00;13.50;;;30.50;76.50;;;;;;4993128;28;20468;-71
2021/07/12 10:45:43;;;;;;;15.00;14.30;;;29.70;79.00;;;;;;4992862;28;20482;-71
2021/07/12 10:48:13;;;;;;;13.97;13.47;;;30.50;78.70;;;;;;4992012;28;20455;-71
2021/07/12 10:50:42;;;;;;;13.60;13.10;;;30.50;78.10;;;;;;4992840;28;20458;-71
2021/07/12 10:53:45;;;;;;;13.90;13.33;;;30.10;78.70;;;;;;4992835;28;20976;-71
2021/07/12 10:56:15;;;;;;;14.43;13.93;;;30.40;77.80;;;;;;4992665;28;20461;-71
2021/07/12 10:58:50;;;;;;;13.90;13.40;;;30.50;77.00;;;;;;4992671;28;20454;-72
2021/07/12 11:01:40;;;;;;;14.60;14.10;;;30.50;77.40;;;;;;4992954;28;20450;-72
2021/07/12 11:04:51;;;;;;;13.53;13.13;;;30.40;78.20;;;;;;4992596;28;20486;-71
2021/07/12 11:07:18;;;;;;;13.50;13.00;;;30.20;79.80;;;;;;4992803;28;21004;-72
2021/07/12 11:09:47;;;;;;;14.13;13.53;;;30.30;78.50;;;;;;4992837;28;20489;-72
2021/07/12 11:12:48;;;;;;;13.80;13.30;;;30.40;78.50;;;;;;4992572;28;20554;-72
2021/07/12 11:15:19;;;;;;;14.07;13.57;;;30.50;79.80;;;;;;4992782;28;20458;-71
2021/07/12 11:17:50;;;;;;;14.13;13.63;;;30.60;77.60;;;;;;4992685;28;20983;-71
2021/07/12 11:20:17;;;;;;;14.70;14.13;;;30.70;76.60;;;;;;4991999;28;20477;-72
2021/07/12 11:22:52;;;;;;;14.50;14.00;;;30.80;76.80;;;;;;4992440;28;20462;-71
2021/07/12 11:25:38;;;;;;;14.87;14.37;;;30.70;76.00;;;;;;4992533;28;20533;-71
2021/07/12 11:28:09;;;;;;;14.23;13.77;;;30.70;77.00;;;;;;4992178;28;20489;-72
2021/07/12 11:30:38;;;;;;;13.67;13.07;;;31.20;75.90;;;;;;4992285;28;20462;-71
2021/07/12 11:33:05;;;;;;;15.83;15.23;;;31.90;74.40;;;;;;4992107;28;20478;-72
2021/07/12 11:35:32;;;;;;;14.70;14.20;;;33.10;72.60;;;;;;4992304;28;20489;-72
2021/07/12 11:37:59;;;;;;;14.27;13.77;;;33.50;68.90;;;;;;4992055;28;20490;-71
2021/07/12 11:40:26;;;;;;;14.33;13.83;;;33.20;67.90;;;;;;4992012;28;20868;-71
2021/07/12 11:42:53;;;;;;;14.23;13.83;;;33.20;68.30;;;;;;4990219;28;20454;-72
2021/07/12 11:45:23;;;;;;;14.43;13.93;;;33.60;66.60;;;;;;4991855;28;20458;-71
2021/07/12 11:47:55;;;;;;;15.13;14.50;;;33.80;66.30;;;;;;4991901;28;20462;-71
2021/07/12 11:50:24;;;;;;;15.10;14.50;;;32.60;66.60;;;;;;4991725;28;20477;-72
2021/07/12 11:52:53;;;;;;;14.30;13.80;;;33.10;67.30;;;;;;4991668;28;20463;-71
2021/07/12 11:55:21;;;;;;;15.27;14.77;;;34.10;66.10;;;;;;4991699;28;20451;-71
2021/07/12 11:57:49;;;;;;;15.03;14.53;;;33.40;63.80;;;;;;4991886;28;20450;-71
2021/07/12 12:00:18;;;;;;;14.07;13.50;;;32.80;65.80;;;;;;4991847;28;20454;-71
2021/07/12 12:02:46;;;;;;;13.60;13.20;;;32.60;66.60;;;;;;4991633;28;20455;-72
2021/07/12 12:05:14;;;;;;;14.40;13.70;;;32.40;66.40;;;;;;4991331;28;20454;-71
2021/07/12 12:07:45;;;;;;;14.03;13.53;;;31.80;68.80;;;;;;4991363;28;20490;-72
2021/07/12 12:10:15;;;;;;;13.70;13.20;;;31.90;68.90;;;;;;4991440;28;20462;-72
2021/07/12 12:12:45;;;;;;;14.70;14.10;;;31.90;69.90;;;;;;4991383;28;20450;-72
2021/07/12 12:15:15;;;;;;;17.40;16.40;;;32.10;68.30;;;;;;4991350;28;20955;-72
2021/07/12 12:17:46;;;;;;;14.63;14.13;;;33.10;68.00;;;;;;4991233;28;20447;-72
2021/07/12 12:20:20;;;;;;;15.40;14.80;;;33.50;65.70;;;;;;4991221;28;20454;-72
2021/07/12 12:23:09;;;;;;;14.20;13.70;;;34.00;63.40;;;;;;4991611;28;20453;-71
2021/07/12 12:25:42;;;;;;;15.13;14.30;;;33.00;64.10;;;;;;4985815;28;20455;-72
2021/07/12 12:28:09;;;;;;;14.20;13.70;;;32.60;68.30;;;;;;4991183;28;20450;-72
2021/07/12 12:30:37;;;;;;;14.20;13.70;;;32.50;67.30;;;;;;4991049;28;20458;-72
2021/07/12 12:33:04;;;;;;;14.90;14.30;;;32.60;66.30;;;;;;4991099;28;20454;-72
2021/07/12 12:35:32;;;;;;;14.83;14.33;;;32.80;66.20;;;;;;4991086;28;20493;-72
2021/07/12 12:38:14;;;;;;;14.67;14.17;;;33.20;65.10;;;;;;4990951;28;20510;-72
2021/07/12 12:40:41;;;;;;;14.20;13.70;;;33.80;64.30;;;;;;4991120;28;20857;-72
2021/07/12 12:43:13;;;;;;;14.07;13.50;;;33.30;63.20;;;;;;4990894;28;20764;-71
2021/07/12 12:45:48;;;;;;;14.87;14.37;;;33.00;64.90;;;;;;4990835;28;20487;-72
2021/07/12 12:48:34;;;;;;;15.80;14.53;;;32.50;67.40;;;;;;4990999;28;20450;-71
2021/07/12 12:51:21;;;;;;;15.00;14.43;;;33.40;64.80;;;;;;4991038;28;20455;-72
2021/07/12 12:54:04;;;;;;;14.50;13.80;;;34.00;63.30;;;;;;4990937;28;20469;-72
2021/07/12 12:56:30;;;;;;;14.47;13.97;;;34.10;65.10;;;;;;4991023;28;20445;-71
2021/07/12 12:59:03;;;;;;;13.83;13.23;;;34.30;62.40;;;;;;4990571;28;20462;-71
2021/07/12 13:01:35;;;;;;;14.40;13.90;;;34.90;60.20;;;;;;4991114;28;20447;-71
2021/07/12 13:04:20;;;;;;;15.03;14.53;;;34.20;62.10;;;;;;4991127;28;20839;-72
2021/07/12 13:06:52;;;;;;;14.83;14.33;;;33.80;63.50;;;;;;4990806;28;20490;-71
2021/07/12 13:09:29;;;;;;;12.93;12.53;;;33.70;63.00;;;;;;4990690;28;20495;-71
2021/07/12 13:12:16;;;;;;;14.60;14.00;;;33.50;63.80;;;;;;4990513;28;20462;-71
2021/07/12 13:14:48;;;;;;;13.83;13.33;;;33.70;64.60;;;;;;4990326;28;20454;-71
2021/07/12 13:17:16;;;;;;;14.20;13.70;;;33.90;64.70;;;;;;4990558;28;20445;-72
2021/07/12 13:19:44;;;;;;;14.30;13.80;;;34.20;64.40;;;;;;4990260;28;20458;-71
2021/07/12 13:22:24;;;;;;;13.80;13.40;;;33.80;64.40;;;;;;4990297;28;20965;-72
2021/07/12 13:24:53;;;;;;;14.33;13.83;;;33.10;66.50;;;;;;4990309;28;20490;-71
2021/07/12 13:27:38;;;;;;;14.50;14.00;;;32.30;67.90;;;;;;4988296;28;20490;-71
2021/07/12 13:30:09;;;;;;;13.70;13.23;;;32.80;67.70;;;;;;4990140;28;20453;-72
2021/07/12 13:32:35;;;;;;;14.13;13.63;;;33.00;66.90;;;;;;4990119;28;20462;-72
2021/07/12 13:35:05;;;;;;;13.57;13.07;;;32.90;67.20;;;;;;4990169;28;20475;-71
2021/07/12 13:37:33;;;;;;;13.43;13.03;;;32.70;67.60;;;;;;4990067;28;20474;-72
2021/07/12 13:40:00;;;;;;;14.70;14.20;;;32.30;69.10;;;;;;4990302;28;20447;-72
2021/07/12 13:42:27;;;;;;;14.53;14.03;;;32.10;69.20;;;;;;4990144;28;20937;-72
2021/07/12 13:44:54;;;;;;;13.27;12.80;;;32.10;69.20;;;;;;4993189;28;20447;-72
2021/07/12 13:47:21;;;;;;;13.90;13.30;;;31.60;70.00;;;;;;4994062;28;20494;-71
2021/07/12 13:49:48;;;;;;;13.33;12.90;;;31.70;70.50;;;;;;4994200;28;20466;-72
2021/07/12 13:52:15;;;;;;;13.80;13.40;;;31.90;69.50;;;;;;4994246;28;20447;-72
2021/07/12 13:54:44;;;;;;;13.17;12.67;;;31.90;70.30;;;;;;4993711;28;20968;-72
2021/07/12 13:57:11;;;;;;;14.43;13.93;;;31.70;69.40;;;;;;4994136;28;20447;-72
2021/07/12 13:59:40;;;;;;;14.57;13.93;;;31.10;72.80;;;;;;4984720;28;20463;-72
2021/07/12 14:02:09;;;;;;;14.20;13.70;;;30.80;73.90;;;;;;4983736;28;20482;-72
2021/07/12 14:04:36;;;;;;;12.63;12.23;;;30.30;74.20;;;;;;4993854;28;20843;-72
2021/07/12 14:07:03;;;;;;;14.57;13.87;;;30.90;74.80;;;;;;4994379;28;20490;-71
2021/07/12 14:09:30;;;;;;;14.50;14.00;;;31.40;74.00;;;;;;4994656;28;20454;-72
2021/07/12 14:11:58;;;;;;;14.10;13.60;;;31.60;73.10;;;;;;4994510;28;20502;-72
2021/07/12 14:14:25;;;;;;;14.13;13.70;;;31.20;72.50;;;;;;4994264;28;20513;-71
2021/07/12 14:16:51;;;;;;;14.80;14.30;;;31.00;73.50;;;;;;4993798;28;20848;-71
2021/07/12 14:19:18;;;;;;;15.17;14.67;;;31.00;74.00;;;;;;4994014;28;20828;-71
2021/07/12 14:21:45;;;;;;;13.90;13.30;;;31.10;74.70;;;;;;4993956;28;20457;-72
2021/07/12 14:24:11;;;;;;;13.43;13.03;;;31.10;75.00;;;;;;4993916;28;20956;-72
2021/07/12 14:26:38;;;;;;;14.13;13.53;;;31.20;74.90;;;;;;4993517;28;20490;-71
2021/07/12 14:29:06;;;;;;;13.10;12.67;;;31.10;75.50;;;;;;4993614;28;20458;-72
2021/07/12 14:31:33;;;;;;;14.30;13.73;;;32.00;74.80;;;;;;4993637;28;20455;-72
2021/07/12 14:34:01;;;;;;;14.63;14.13;;;32.40;73.30;;;;;;4993906;28;20470;-71
2021/07/12 14:36:27;;;;;;;14.10;13.60;;;32.00;73.00;;;;;;4993586;28;20504;-72
2021/07/12 14:38:54;;;;;;;13.50;13.00;;;32.10;73.40;;;;;;4993643;28;20482;-72
2021/07/12 14:41:21;;;;;;;14.30;13.60;;;32.70;72.70;;;;;;4993618;28;20454;-71
2021/07/12 14:43:48;;;;;;;13.67;13.20;;;32.20;72.50;;;;;;4993667;28;20458;-71
2021/07/12 14:46:17;;;;;;;14.17;13.57;;;32.60;74.10;;;;;;4993739;28;20454;-72
2021/07/12 14:48:44;;;;;;;13.73;13.17;;;32.50;73.20;;;;;;4993586;28;20494;-72
2021/07/12 14:51:12;;;;;;;13.67;13.07;;;32.50;71.80;;;;;;4993577;28;20447;-72
2021/07/12 14:53:39;;;;;;;14.30;13.80;;;32.70;73.50;;;;;;4993360;28;21017;-72
2021/07/12 14:56:06;;;;;;;12.73;12.23;;;32.30;73.30;;;;;;4992265;28;20451;-71
2021/07/12 14:58:33;;;;;;;13.20;12.80;;;31.70;73.80;;;;;;4993406;28;20523;-72
2021/07/12 15:01:00;;;;;;;13.93;13.33;;;31.10;76.30;;;;;;4992240;28;20454;-71
2021/07/12 15:03:28;;;;;;;13.00;12.50;;;30.50;78.30;;;;;;4993418;28;20451;-72
2021/07/12 15:05:55;;;;;;;13.37;12.67;;;30.20;79.10;;;;;;4993513;28;20450;-72
2021/07/12 15:08:22;;;;;;;12.87;12.47;;;30.00;80.10;;;;;;4993464;28;21023;-72
2021/07/12 15:10:49;;;;;;;12.73;12.23;;;30.00;81.60;;;;;;4993716;28;20461;-71
2021/07/12 15:13:16;;;;;;;13.23;12.70;;;30.10;82.40;;;;;;4993887;28;20455;-71
2021/07/12 15:15:43;;;;;;;12.77;12.27;;;30.20;82.20;;;;;;4993404;28;20470;-72
2021/07/12 15:18:10;;;;;;;13.37;12.87;;;30.30;81.00;;;;;;4993586;28;20449;-71
2021/07/12 15:20:38;;;;;;;13.40;13.00;;;30.40;81.00;;;;;;4993400;28;20466;-71
2021/07/12 15:23:05;;;;;;;13.33;12.83;;;30.20;81.20;;;;;;4993311;28;20471;-71
2021/07/12 15:25:32;;;;;;;12.70;12.00;;;30.10;82.00;;;;;;4993359;28;20467;-72
2021/07/12 15:27:59;;;;;;;14.27;13.57;;;30.20;81.90;;;;;;4993187;28;20517;-72
2021/07/12 15:30:26;;;;;;;13.33;12.83;;;30.00;82.50;;;;;;4993223;28;20462;-71
2021/07/12 15:32:52;;;;;;;14.30;13.80;;;29.90;83.30;;;;;;4993021;28;20462;-71
2021/07/12 15:35:19;;;;;;;12.70;12.20;;;29.80;83.30;;;;;;4993070;28;20478;-71
2021/07/12 15:37:47;;;;;;;13.23;12.60;;;29.70;82.30;;;;;;4979119;28;20487;-71
2021/07/12 15:40:14;;;;;;;13.50;13.03;;;29.70;84.00;;;;;;4973623;28;20455;-72
2021/07/12 15:42:42;;;;;;;13.47;12.90;;;29.60;86.00;;;;;;4973572;28;20455;-72
2021/07/12 15:45:12;;;;;;;13.43;13.03;;;29.80;84.50;;;;;;4973558;28;20519;-71
2021/07/12 15:47:39;;;;;;;13.80;13.30;;;29.60;82.70;;;;;;4973154;28;20502;-71
2021/07/12 15:50:07;;;;;;;13.77;13.27;;;29.50;82.80;;;;;;4973067;28;20455;-72
2021/07/12 15:52:33;;;;;;;14.20;13.70;;;29.40;84.00;;;;;;4973391;28;20459;-72
2021/07/12 15:55:01;;;;;;;14.20;13.70;;;29.30;83.20;;;;;;4973566;28;20454;-72
2021/07/12 15:57:28;;;;;;;14.10;13.60;;;29.40;82.50;;;;;;4973309;28;20439;-71
2021/07/12 15:59:55;;;;;;;13.00;12.60;;;29.50;82.90;;;;;;4973036;28;20448;-72
2021/07/12 16:02:22;;;;;;;13.70;13.20;;;29.40;81.20;;;;;;4973120;28;20460;-72
2021/07/12 16:04:49;;;;;;;13.10;12.60;;;29.60;82.50;;;;;;4973140;28;20467;-71
2021/07/12 16:07:16;;;;;;;12.60;12.20;;;29.80;82.50;;;;;;4973012;28;20479;-72
2021/07/12 16:09:42;;;;;;;13.47;12.97;;;29.80;83.10;;;;;;4972939;28;20455;-71
2021/07/12 16:12:12;;;;;;;13.43;13.03;;;29.80;81.60;;;;;;4972961;28;20459;-71
2021/07/12 16:14:39;;;;;;;14.13;13.63;;;29.60;82.30;;;;;;4973033;28;20870;-71
2021/07/12 16:17:06;;;;;;;13.40;12.90;;;29.50;82.10;;;;;;4972745;28;20530;-71
2021/07/12 16:19:33;;;;;;;14.00;13.27;;;29.40;83.00;;;;;;4972915;28;20448;-71
2021/07/12 16:22:01;;;;;;;13.23;12.83;;;29.50;84.00;;;;;;4972920;28;20452;-70
2021/07/12 16:24:27;;;;;;;14.17;13.67;;;29.60;83.70;;;;;;4972685;28;20455;-70
2021/07/12 16:26:55;;;;;;;13.20;12.70;;;29.40;83.50;;;;;;4972416;28;20460;-70
2021/07/12 16:29:25;;;;;;;13.50;12.90;;;29.30;83.50;;;;;;4972292;28;20463;-70
2021/07/12 16:31:53;;;;;;;14.60;14.10;;;29.20;84.50;;;;;;4972491;28;20483;-70
2021/07/12 16:34:22;;;;;;;13.97;13.43;;;29.20;84.40;;;;;;4972288;28;20567;-70
2021/07/12 16:36:49;;;;;;;13.87;13.37;;;29.20;84.80;;;;;;4978685;28;20490;-70
2021/07/12 16:39:15;;;;;;;13.57;13.07;;;29.20;84.00;;;;;;4992186;28;20861;-70
2021/07/12 16:41:42;;;;;;;13.80;13.10;;;29.10;85.10;;;;;;4991799;28;20933;-70
2021/07/12 16:44:09;;;;;;;14.30;13.77;;;29.20;86.20;;;;;;4991762;28;20458;-70
2021/07/12 16:46:38;;;;;;;12.90;12.50;;;29.20;86.80;;;;;;4991679;28;20469;-70
2021/07/12 16:49:05;;;;;;;13.20;12.80;;;29.20;85.70;;;;;;4991395;28;20490;-71
2021/07/12 16:51:33;;;;;;;14.17;13.57;;;29.20;86.50;;;;;;4991890;28;20458;-71
2021/07/12 16:53:59;;;;;;;13.80;13.20;;;29.10;87.70;;;;;;4991868;28;20465;-71
2021/07/12 16:56:26;;;;;;;13.50;13.00;;;29.00;88.10;;;;;;4991613;28;20473;-71
2021/07/12 16:58:53;;;;;;;14.73;14.17;;;29.00;89.90;;;;;;4991143;28;20708;-71
2021/07/12 17:01:20;;;;;;;13.90;13.50;;;29.00;90.00;;;;;;4991021;28;20463;-71
2021/07/12 17:03:48;;;;;;;12.80;12.30;;;28.90;89.00;;;;;;4991123;28;20462;-71